createdAt,value
2019-04-22T00:02:15.156Z,94.30
2019-04-22T00:04:55.049Z,94.00
2019-04-22T00:07:40.338Z,94.10
2019-04-22T00:10:09.746Z,94.20
2019-04-22T00:12:43.927Z,94.50
2019-04-22T00:15:02.506Z,94.40
2019-04-22T00:17:38.699Z,94.80
2019-04-22T00:20:04.361Z,94.70
2019-04-22T00:22:36.878Z,94.80
2019-04-22T00:25:10.515Z,94.80
2019-04-22T00:27:39.166Z,94.90
2019-04-22T00:30:10.671Z,95.00
2019-04-22T00:32:49.245Z,95.10
2019-04-22T00:35:18.197Z,95.30
2019-04-22T00:37:53.674Z,95.40
2019-04-22T00:40:21.313Z,95.30
2019-04-22T00:42:47.612Z,95.50
2019-04-22T00:45:19.328Z,95.90
2019-04-22T00:47:46.246Z,96.10
2019-04-22T00:53:04.444Z,96.30
2019-04-22T00:55:12.331Z,96.70
2019-04-22T00:57:44.309Z,96.70
2019-04-22T01:00:11.587Z,96.80
2019-04-22T01:02:46.177Z,96.90
2019-04-22T01:05:16.994Z,97.10
2019-04-22T01:07:40.768Z,97.10
2019-04-22T01:10:11.620Z,97.20
2019-04-22T01:12:41.212Z,97.00
2019-04-22T01:15:10.893Z,97.10
2019-04-22T01:17:39.955Z,97.00
2019-04-22T01:20:45.789Z,97.20
2019-04-22T01:22:36.330Z,97.10
2019-04-22T01:25:02.428Z,97.20
2019-04-22T01:27:26.644Z,97.30
2019-04-22T01:29:52.348Z,97.50
2019-04-22T01:32:17.557Z,97.50
2019-04-22T01:34:52.640Z,97.70
2019-04-22T01:37:32.901Z,97.80
2019-04-22T01:40:08.452Z,97.80
2019-04-22T01:42:35.738Z,98.10
2019-04-22T01:44:59.635Z,98.00
2019-04-22T01:47:31.354Z,98.10
2019-04-22T01:49:59.876Z,98.30
2019-04-22T01:52:32.675Z,98.50
2019-04-22T01:55:03.938Z,98.50
2019-04-22T01:57:28.771Z,98.30
2019-04-22T01:59:55.199Z,98.40
2019-04-22T02:02:30.414Z,98.40
2019-04-22T02:05:02.704Z,98.60
2019-04-22T02:07:23.514Z,98.70
2019-04-22T02:09:57.949Z,99.00
2019-04-22T02:12:29.263Z,98.90
2019-04-22T02:14:52.312Z,99.00
2019-04-22T02:17:28.577Z,98.90
2019-04-22T02:22:37.815Z,99.50
2019-04-22T02:24:56.264Z,99.50
2019-04-22T02:27:30.704Z,99.60
2019-04-22T02:29:47.353Z,99.70
2019-04-22T02:32:38.896Z,99.90
2019-04-22T02:34:56.882Z,99.90
2019-04-22T02:37:21.138Z,99.90
2019-04-22T02:42:14.100Z,99.90
2019-04-22T02:49:47.522Z,99.90
2019-04-22T02:52:29.388Z,99.90
2019-04-22T02:54:52.588Z,99.90
2019-04-22T02:57:27.991Z,99.90
2019-04-22T02:59:46.865Z,99.90
2019-04-22T03:02:11.981Z,99.90
2019-04-22T03:04:57.986Z,99.90
2019-04-22T03:07:09.015Z,99.90
2019-04-22T03:09:47.729Z,99.90
2019-04-22T03:14:46.253Z,99.90
2019-04-22T03:17:08.654Z,99.90
2019-04-22T03:22:12.688Z,99.90
2019-04-22T03:24:38.226Z,99.90
2019-04-22T03:37:45.697Z,99.90
2019-04-22T03:42:32.600Z,99.90
2019-04-22T03:45:16.996Z,99.90
2019-04-22T03:52:27.827Z,99.90
2019-04-22T03:55:01.826Z,99.90
2019-04-22T03:57:44.674Z,99.90
2019-04-22T03:59:56.748Z,99.90
2019-04-22T04:02:42.664Z,99.90
2019-04-22T04:04:51.102Z,99.90
2019-04-22T04:10:01.070Z,99.90
2019-04-22T04:12:23.717Z,99.90
2019-04-22T04:20:05.691Z,99.90
2019-04-22T04:25:14.752Z,99.90
2019-04-22T04:27:42.672Z,99.90
2019-04-22T04:32:35.798Z,99.90
2019-04-22T04:35:03.197Z,99.90
2019-04-22T04:39:57.934Z,99.90
2019-04-22T04:47:29.495Z,99.90
2019-04-22T04:49:54.470Z,99.90
2019-04-22T04:52:39.738Z,99.90
2019-04-22T04:54:47.818Z,99.90
2019-04-22T04:57:17.418Z,99.90
2019-04-22T05:02:16.010Z,99.90
2019-04-22T05:04:59.274Z,99.90
2019-04-22T05:07:19.179Z,99.90
2019-04-22T05:09:57.241Z,99.90
2019-04-22T05:12:19.533Z,99.90
2019-04-22T05:14:44.602Z,99.90
2019-04-22T05:17:07.702Z,99.90
2019-04-22T05:22:06.079Z,99.90
2019-04-22T05:27:11.278Z,99.90
2019-04-22T05:31:56.852Z,99.90
2019-04-22T05:34:29.417Z,99.90
2019-04-22T05:36:56.281Z,99.90
2019-04-22T05:39:24.290Z,99.90
2019-04-22T05:41:55.646Z,99.90
2019-04-22T05:44:22.252Z,99.90
2019-04-22T05:46:47.485Z,99.90
2019-04-22T05:49:19.317Z,99.90
2019-04-22T05:51:53.206Z,99.90
2019-04-22T05:54:20.929Z,99.90
2019-04-22T05:56:41.354Z,99.90
2019-04-22T05:59:19.061Z,99.90
2019-04-22T06:04:19.737Z,99.90
2019-04-22T06:06:41.026Z,99.90
2019-04-22T06:09:19.153Z,99.90
2019-04-22T06:11:55.561Z,99.90
2019-04-22T06:14:13.944Z,99.90
2019-04-22T06:16:45.170Z,99.90
2019-04-22T06:19:16.783Z,99.60
2019-04-22T06:21:44.777Z,99.60
2019-04-22T06:24:16.736Z,99.40
2019-04-22T06:32:08.805Z,98.90
2019-04-22T06:34:15.733Z,98.70
2019-04-22T06:39:13.294Z,98.20
2019-04-22T06:41:34.889Z,98.10
2019-04-22T06:44:16.196Z,97.80
2019-04-22T06:46:38.307Z,97.10
2019-04-22T06:49:03.250Z,96.60
2019-04-22T06:51:32.972Z,96.60
2019-04-22T06:54:01.765Z,96.20
2019-04-22T06:56:27.436Z,95.80
2019-04-22T06:58:57.765Z,95.30
2019-04-22T07:01:30.006Z,95.30
2019-04-22T07:04:01.108Z,94.40
2019-04-22T07:09:20.770Z,93.50
2019-04-22T07:11:27.819Z,93.20
2019-04-22T07:14:01.486Z,93.00
2019-04-22T07:18:56.766Z,91.70
2019-04-22T07:21:26.098Z,91.30
2019-04-22T07:24:02.987Z,90.80
2019-04-22T07:26:20.398Z,90.20
2019-04-22T07:28:50.526Z,90.30
2019-04-22T07:31:20.916Z,87.80
2019-04-22T07:33:51.183Z,86.70
2019-04-22T07:36:39.643Z,85.50
2019-04-22T07:38:43.889Z,83.60
2019-04-22T07:41:17.282Z,81.00
2019-04-22T07:44:07.648Z,77.70
2019-04-22T07:46:16.440Z,75.60
2019-04-22T07:48:53.053Z,72.30
2019-04-22T07:51:14.882Z,69.90
2019-04-22T07:53:45.535Z,68.10
2019-04-22T07:59:09.576Z,64.80
2019-04-22T08:01:39.893Z,63.70
2019-04-22T08:04:21.292Z,62.90
2019-04-22T08:06:43.748Z,61.20
2019-04-22T08:09:11.489Z,59.10
2019-04-22T08:11:43.770Z,57.10
2019-04-22T08:14:07.576Z,55.20
2019-04-22T08:16:28.509Z,54.70
2019-04-22T08:19:03.135Z,53.90
2019-04-22T08:21:33.365Z,53.10
2019-04-22T08:24:01.255Z,52.20
2019-04-22T08:26:32.293Z,51.00
2019-04-22T08:34:01.784Z,50.20
2019-04-22T08:44:01.005Z,46.10
2019-04-22T08:46:33.120Z,46.20
2019-04-22T08:48:57.664Z,45.00
2019-04-22T08:51:24.963Z,45.40
2019-04-22T08:56:29.784Z,44.70
2019-04-22T08:58:57.067Z,44.20
2019-04-22T09:01:23.861Z,43.60
2019-04-22T09:03:54.971Z,42.00
2019-04-22T09:06:36.801Z,41.60
2019-04-22T09:08:55.150Z,41.10
2019-04-22T09:11:20.064Z,40.40
2019-04-22T09:13:53.465Z,39.40
2019-04-22T09:16:21.899Z,38.20
2019-04-22T09:18:48.303Z,37.30
2019-04-22T09:21:18.721Z,37.60
2019-04-22T09:26:20.532Z,37.10
2019-04-22T09:28:44.387Z,36.40
2019-04-22T09:31:12.911Z,35.10
2019-04-22T09:33:38.180Z,35.50
2019-04-22T09:36:16.831Z,35.00
2019-04-22T09:41:13.968Z,33.20
2019-04-22T09:43:47.144Z,33.90
2019-04-22T09:46:08.954Z,32.90
2019-04-22T09:51:05.557Z,33.10
2019-04-22T09:53:39.285Z,32.40
2019-04-22T09:56:08.069Z,31.70
2019-04-22T09:58:39.849Z,31.90
2019-04-22T10:01:22.633Z,31.70
2019-04-22T10:03:52.663Z,31.20
2019-04-22T10:06:22.843Z,31.10
2019-04-22T10:08:55.262Z,30.60
2019-04-22T10:11:21.366Z,30.10
2019-04-22T10:13:47.516Z,29.40
2019-04-22T10:16:20.674Z,29.80
2019-04-22T10:18:49.091Z,29.80
2019-04-22T10:21:14.455Z,30.30
2019-04-22T10:23:42.479Z,29.80
2019-04-22T10:26:17.666Z,29.60
2019-04-22T10:28:44.568Z,28.80
2019-04-22T10:31:17.130Z,28.20
2019-04-22T10:33:34.134Z,29.10
2019-04-22T10:35:41.387Z,29.80
2019-04-22T10:38:10.344Z,29.60
2019-04-22T10:40:38.722Z,29.90
2019-04-22T10:43:07.433Z,29.90
2019-04-22T10:45:36.231Z,30.10
2019-04-22T10:48:06.071Z,30.20
2019-04-22T10:50:42.927Z,29.80
2019-04-22T10:53:11.587Z,29.00
2019-04-22T10:55:42.189Z,29.10
2019-04-22T10:58:10.710Z,29.30
2019-04-22T11:00:39.625Z,28.90
2019-04-22T11:03:08.430Z,28.80
2019-04-22T11:05:37.828Z,29.30
2019-04-22T11:08:08.067Z,29.70
2019-04-22T11:10:49.943Z,28.80
2019-04-22T11:13:05.052Z,28.80
2019-04-22T11:15:32.937Z,28.70
2019-04-22T11:18:01.886Z,28.20
2019-04-22T11:20:29.591Z,28.50
2019-04-22T11:22:58.259Z,28.90
2019-04-22T11:25:26.022Z,27.90
2019-04-22T11:27:53.745Z,27.70
2019-04-22T11:30:24.696Z,26.80
2019-04-22T11:32:51.302Z,26.30
2019-04-22T11:35:19.483Z,26.00
2019-04-22T11:37:46.971Z,26.10
2019-04-22T11:40:24.297Z,27.00
2019-04-22T11:42:46.098Z,26.90
2019-04-22T11:45:14.931Z,27.30
2019-04-22T11:47:43.348Z,26.80
2019-04-22T11:50:12.192Z,26.60
2019-04-22T11:52:40.599Z,26.50
2019-04-22T11:55:08.714Z,26.40
2019-04-22T11:57:37.156Z,26.20
2019-04-22T12:00:07.145Z,25.60
2019-04-22T12:02:34.599Z,24.60
2019-04-22T12:05:02.157Z,24.90
2019-04-22T12:07:32.955Z,25.40
2019-04-22T12:09:59.753Z,25.00
2019-04-22T12:12:27.821Z,25.70
2019-04-22T12:14:56.389Z,25.30
2019-04-22T12:17:24.231Z,25.70
2019-04-22T12:19:52.642Z,26.20
2019-04-22T12:22:20.893Z,26.00
2019-04-22T12:24:48.462Z,25.50
2019-04-22T12:27:18.617Z,25.20
2019-04-22T12:29:45.187Z,25.50
2019-04-22T12:32:13.602Z,24.80
2019-04-22T12:34:41.698Z,24.60
2019-04-22T12:37:09.286Z,24.70
2019-04-22T12:39:36.707Z,24.70
2019-04-22T12:42:04.389Z,24.40
2019-04-22T12:44:33.522Z,24.20
2019-04-22T12:47:02.639Z,24.60
2019-04-22T12:49:30.196Z,24.20
2019-04-22T12:51:58.856Z,24.30
2019-04-22T12:54:26.928Z,25.30
2019-04-22T12:56:55.714Z,24.60
2019-04-22T12:59:23.684Z,24.60
2019-04-22T13:01:51.281Z,24.40
2019-04-22T13:04:21.242Z,24.40
2019-04-22T13:06:48.112Z,24.20
2019-04-22T13:09:17.757Z,23.90
2019-04-22T13:11:45.963Z,24.20
2019-04-22T13:14:14.792Z,24.30
2019-04-22T13:16:42.909Z,24.10
2019-04-22T13:19:13.166Z,24.20
2019-04-22T13:21:40.654Z,22.90
2019-04-22T13:24:09.111Z,22.70
2019-04-22T13:26:38.064Z,23.10
2019-04-22T13:29:05.559Z,23.80
2019-04-22T13:31:33.119Z,23.70
2019-04-22T13:34:02.303Z,23.90
2019-04-22T13:36:31.542Z,24.70
2019-04-22T13:38:59.007Z,25.10
2019-04-22T13:41:35.394Z,24.90
2019-04-22T13:43:56.074Z,25.90
2019-04-22T13:46:24.086Z,25.40
2019-04-22T13:49:21.280Z,25.30
2019-04-22T13:56:40.329Z,25.50
2019-04-22T13:59:00.275Z,25.70
2019-04-22T14:01:22.745Z,25.40
2019-04-22T14:04:16.432Z,25.30
2019-04-22T14:06:44.844Z,25.20
2019-04-22T14:09:13.669Z,25.00
2019-04-22T14:11:49.382Z,24.80
2019-04-22T14:14:10.924Z,24.50
2019-04-22T14:16:40.825Z,24.60
2019-04-22T14:19:09.856Z,24.30
2019-04-22T14:21:38.784Z,24.70
2019-04-22T14:24:07.365Z,24.50
2019-04-22T14:26:51.374Z,24.10
2019-04-22T14:29:06.037Z,24.70
2019-04-22T14:31:33.566Z,24.50
2019-04-22T14:34:04.995Z,24.00
2019-04-22T14:36:30.259Z,23.90
2019-04-22T14:38:57.893Z,23.20
2019-04-22T14:41:46.716Z,23.80
2019-04-22T14:44:57.719Z,24.00
2019-04-22T14:46:49.254Z,24.00
2019-04-22T14:49:21.949Z,24.20
2019-04-22T14:51:44.148Z,24.40
2019-04-22T14:54:10.024Z,24.30
2019-04-22T14:56:22.340Z,24.30
2019-04-22T14:58:50.882Z,24.20
2019-04-22T15:01:19.111Z,23.50
2019-04-22T15:03:48.366Z,23.60
2019-04-22T15:06:15.906Z,23.60
2019-04-22T15:08:44.977Z,23.40
2019-04-22T15:11:13.138Z,24.00
2019-04-22T15:13:41.228Z,23.40
2019-04-22T15:16:27.853Z,23.70
2019-04-22T15:19:04.137Z,23.50
2019-04-22T15:21:32.482Z,23.10
2019-04-22T15:24:20.585Z,23.10
2019-04-22T15:26:48.507Z,23.20
2019-04-22T15:29:15.882Z,23.30
2019-04-22T15:31:43.290Z,23.20
2019-04-22T15:34:12.305Z,22.70
2019-04-22T15:36:40.033Z,23.50
2019-04-22T15:39:09.317Z,23.50
2019-04-22T15:41:36.892Z,23.80
2019-04-22T15:44:05.869Z,24.20
2019-04-22T15:46:34.889Z,24.30
2019-04-22T15:49:02.504Z,23.80
2019-04-22T15:51:30.826Z,24.10
2019-04-22T15:53:58.283Z,24.40
2019-04-22T15:56:26.571Z,24.00
2019-04-22T15:58:55.220Z,24.30
2019-04-22T16:01:28.155Z,23.80
2019-04-22T16:03:52.512Z,23.90
2019-04-22T16:06:20.004Z,22.90
2019-04-22T16:08:47.904Z,23.40
2019-04-22T16:11:15.899Z,23.30
2019-04-22T16:13:44.252Z,23.70
2019-04-22T16:16:12.425Z,23.60
2019-04-22T16:18:40.288Z,23.80
2019-04-22T16:21:09.053Z,23.70
2019-04-22T16:23:50.027Z,23.60
2019-04-22T16:26:36.097Z,24.10
2019-04-22T16:29:05.234Z,24.20
2019-04-22T16:31:33.627Z,24.40
2019-04-22T16:34:02.561Z,24.20
2019-04-22T16:36:31.091Z,23.90
2019-04-22T16:38:58.571Z,24.70
2019-04-22T16:41:26.539Z,25.10
2019-04-22T16:43:54.414Z,25.10
2019-04-22T16:46:21.885Z,24.80
2019-04-22T16:48:49.710Z,24.70
2019-04-22T16:51:18.041Z,24.90
2019-04-22T16:53:45.466Z,25.10
2019-04-22T16:56:13.015Z,25.60
2019-04-22T16:58:40.989Z,25.90
2019-04-22T17:01:24.697Z,26.20
2019-04-22T17:04:18.769Z,26.40
2019-04-22T17:06:47.782Z,26.70
2019-04-22T17:09:17.609Z,26.90
2019-04-22T17:11:45.725Z,27.20
2019-04-22T17:14:16.764Z,27.60
2019-04-22T17:16:42.343Z,28.10
2019-04-22T17:19:11.169Z,28.10
2019-04-22T17:21:39.582Z,27.50
2019-04-22T17:24:07.816Z,26.60
2019-04-22T17:26:36.620Z,26.50
2019-04-22T17:29:06.333Z,26.60
2019-04-22T17:31:34.700Z,26.70
2019-04-22T17:34:02.614Z,26.40
2019-04-22T17:36:30.070Z,26.50
2019-04-22T17:39:14.539Z,27.10
2019-04-22T17:41:44.914Z,27.80
2019-04-22T17:44:25.035Z,28.20
2019-04-22T17:46:48.657Z,28.80
2019-04-22T17:49:50.611Z,29.60
2019-04-22T17:54:49.402Z,30.20
2019-04-22T17:57:17.699Z,30.30
2019-04-22T17:59:46.700Z,30.90
2019-04-22T18:02:16.709Z,31.50
2019-04-22T18:04:33.692Z,32.00
2019-04-22T18:07:27.892Z,32.30
2019-04-22T18:10:23.007Z,32.60
2019-04-22T18:12:19.610Z,32.90
2019-04-22T18:14:47.973Z,33.30
2019-04-22T18:17:17.266Z,33.60
2019-04-22T18:19:40.013Z,33.80
2019-04-22T18:22:02.578Z,34.00
2019-04-22T18:24:28.095Z,34.30
2019-04-22T18:27:29.101Z,34.40
2019-04-22T18:29:41.614Z,35.10
2019-04-22T18:31:59.235Z,35.40
2019-04-22T18:34:33.949Z,35.60
2019-04-22T18:37:07.420Z,35.80
2019-04-22T18:39:44.824Z,36.10
2019-04-22T18:42:04.788Z,36.20
2019-04-22T18:44:35.278Z,36.10
2019-04-22T18:47:03.663Z,36.20
2019-04-22T18:49:31.885Z,36.00
2019-04-22T18:52:22.783Z,36.30
2019-04-22T18:55:07.273Z,36.30
2019-04-22T18:57:44.040Z,36.40
2019-04-22T19:00:09.067Z,36.60
2019-04-22T19:02:39.313Z,36.60
2019-04-22T19:05:19.918Z,36.80
2019-04-22T19:08:07.417Z,37.00
2019-04-22T19:10:37.497Z,37.10
2019-04-22T19:13:22.270Z,37.30
2019-04-22T19:15:35.368Z,37.20
2019-04-22T19:18:01.874Z,37.30
2019-04-22T19:20:35.810Z,38.50
2019-04-22T19:22:57.524Z,40.30
2019-04-22T19:25:17.458Z,41.20
2019-04-22T19:27:53.118Z,42.00
2019-04-22T19:30:23.976Z,42.50
2019-04-22T19:32:51.377Z,42.80
2019-04-22T19:35:17.182Z,43.10
2019-04-22T19:37:48.150Z,43.40
2019-04-22T19:40:25.983Z,43.60
2019-04-22T19:45:17.340Z,43.90
2019-04-22T19:47:53.128Z,44.00
2019-04-22T19:50:16.345Z,44.10
2019-04-22T19:52:47.816Z,44.30
2019-04-22T19:55:16.879Z,44.20
2019-04-22T19:57:44.646Z,44.30
2019-04-22T20:00:14.450Z,44.20
2019-04-22T20:03:16.742Z,44.30
2019-04-22T20:06:02.692Z,44.60
2019-04-22T20:08:29.190Z,45.00
2019-04-22T20:10:52.582Z,45.40
2019-04-22T20:13:30.872Z,45.60
2019-04-22T20:15:45.993Z,45.90
2019-04-22T20:20:58.290Z,46.50
2019-04-22T20:23:18.245Z,46.80
2019-04-22T20:25:48.646Z,46.90
2019-04-22T20:28:24.220Z,47.10
2019-04-22T20:30:50.562Z,47.30
2019-04-22T20:33:26.056Z,47.50
2019-04-22T20:35:52.114Z,47.60
2019-04-22T20:38:19.653Z,47.80
2019-04-22T20:40:42.725Z,47.90
2019-04-22T20:43:22.049Z,47.80
2019-04-22T20:45:49.494Z,47.80
2019-04-22T20:48:06.021Z,47.60
2019-04-22T20:50:48.095Z,47.50
2019-04-22T20:53:21.368Z,46.80
2019-04-22T20:55:43.622Z,46.30
2019-04-22T20:58:12.214Z,45.70
2019-04-22T21:00:36.297Z,45.30
2019-04-22T21:02:59.728Z,44.10
2019-04-22T21:05:37.160Z,43.20
2019-04-22T21:08:11.409Z,43.00
2019-04-22T21:10:31.195Z,42.80
2019-04-22T21:13:01.744Z,42.50
2019-04-22T21:15:44.407Z,42.60
2019-04-22T21:18:08.334Z,42.00
2019-04-22T21:20:36.538Z,42.00
2019-04-22T21:23:05.630Z,41.90
2019-04-22T21:25:27.721Z,41.80
2019-04-22T21:28:04.479Z,42.40
2019-04-22T21:30:31.940Z,42.90
2019-04-22T21:32:57.990Z,44.00
2019-04-22T21:35:48.616Z,44.80
2019-04-22T21:38:06.558Z,45.30
2019-04-22T21:40:30.132Z,45.30
2019-04-22T21:43:04.579Z,45.30
2019-04-22T21:45:23.779Z,45.30
2019-04-22T21:48:04.799Z,45.40
2019-04-22T21:50:47.946Z,45.50
2019-04-22T21:53:04.719Z,45.70
2019-04-22T21:55:31.709Z,46.00
2019-04-22T21:58:20.953Z,46.30
2019-04-22T22:01:07.660Z,46.40
2019-04-22T22:03:30.000Z,46.70
2019-04-22T22:05:47.291Z,46.80
2019-04-22T22:08:32.113Z,46.90
2019-04-22T22:10:58.429Z,47.10
2019-04-22T22:13:25.114Z,47.30
2019-04-22T22:15:52.145Z,47.50
2019-04-22T22:18:19.944Z,47.60
2019-04-22T22:21:13.061Z,47.80
2019-04-22T22:23:25.387Z,47.90
2019-04-22T22:25:47.948Z,48.40
2019-04-22T22:28:38.330Z,48.70
2019-04-22T22:30:56.732Z,49.00
2019-04-22T22:33:20.170Z,49.30
2019-04-22T22:35:47.308Z,49.80
2019-04-22T22:38:19.210Z,50.10
2019-04-22T22:40:30.627Z,50.50
2019-04-22T22:42:58.988Z,50.80
2019-04-22T22:45:33.845Z,51.10
2019-04-22T22:48:24.169Z,51.40
2019-04-22T22:50:42.933Z,51.70
2019-04-22T22:53:25.677Z,52.10
2019-04-22T22:55:41.030Z,52.30
2019-04-22T22:58:16.040Z,52.60
2019-04-22T23:00:41.133Z,52.90
2019-04-22T23:05:46.011Z,53.50
2019-04-22T23:08:16.691Z,53.60
2019-04-22T23:11:15.427Z,54.00
2019-04-22T23:13:31.450Z,54.10
2019-04-22T23:15:50.766Z,54.60
2019-04-22T23:18:05.882Z,54.80
2019-04-22T23:20:38.296Z,55.20
2019-04-22T23:23:21.956Z,55.70
2019-04-22T23:25:56.740Z,56.10
2019-04-22T23:28:33.543Z,56.30
2019-04-22T23:31:23.684Z,56.70
2019-04-22T23:34:01.048Z,57.20
2019-04-22T23:36:41.386Z,57.70
2019-04-22T23:39:15.724Z,58.30
2019-04-22T23:41:45.762Z,59.00
2019-04-22T23:46:58.577Z,60.60
2019-04-22T23:49:28.180Z,61.60
2019-04-22T23:52:22.772Z,62.50
2019-04-22T23:54:39.257Z,63.70
2019-04-22T23:57:01.689Z,65.00
2019-04-22T23:59:49.295Z,66.10
